map of LPL home
LPL - Airport
Location
City:  Liverpool, Lancashire, England, United Kingdom
Name:Liverpool John Lennon
Old (Alt.):RAF Speke
ICAO:EGGP
IATA:LPL

Details
Type:Airport (Aerodrome, Airfield)
Use:Public/Civil, International (customs port of entry)
Latitude:5320'01"N (53.333611)
Longitude:250'59"W (-2.849721)
Elevation:81 ft (25 m)
Variation:1.52W (WMM2015 magnetic declination)
0.16 annual change
Runways:1
Longest:7497 × 151 ft (2285 × 46 m), paved

Time
Time Zone:UTC+0 (DST+1)
Local Time:

Weather
METAR:EGGP 131920Z 12012KT CAVOK 04/01 Q1020
TAF:EGGP 131655Z 1318/1418 11009KT 9999 FEW045

Related Locations
Nearby:
Farthest:NZBA: 11842 mi / 19058 km
Balclutha, OTA, NZ

Find:

   beyond  
but within

Other Information
Maps:
NOTAMs:
Links:
Sources:

  
  • flag of United Kingdom
  • flag of England
  • flag of Lancashire
  

Airport Diagram

Airport diagram for LPL

Airport diagram PDF

Sectional Chart

Flight Planning
at skyvector.com

Satellite Image

Google Maps Satellite view

 

Copyright © 2004-2018 Karl L. Swartz. All rights reserved.
The Great Circle Mapper name and logo are trademarks of the Great Circle Mapper.
All other trademarks mentioned herein belong to their respective owners.
Please see credits for attibutions and further copyright information.

  Follow gcmap on Facebook Follow gcmap on Twitter Follow gcmap on Google+ GCmap on LinkedIn

hCard Microformat

Geo Microformat